Skip Navigation Links Skip Navigation Links

Current Weather

East Troy Muni, East Troy, Wis.

For information only: do not use for flight planning or navigation.
Latest weather
Observation time Saturday, August 24, 2019 11:55 PM CDT
Local time Sunday, August 25, 2019 12:11 AM CDT
Flight conditions Visual Meteorological Conditions
Winds
Wind speed calm
Visibility 10 mi.
Sky condition
Ceiling 4,200 ft. broken clouds
Cloud layer broken clouds 4,200 ft.
Temperature 53°F
Dewpoint 53°F
Altimeter 30.22 in.Hg
Derived measurements
Relative humidity 100%
Density altitude 344 ft.
Remarks
Fully automated report.
Automated weather observing station with precipitation discriminator.
METAR K57C 250455Z AUTO 00000KT 10SM BKN042 12/12 A3022 RMK AO2 T01190119

Settings

Location code

InnerDrive.Weather 4.0.6770.0 Release CLR 4.0.30319.42000
Copyright ©2018 Inner Drive Technology. All rights reserved. Portions Copyright ©1986-2018 David Braverman.

Find weather

Site navigation


Skip Navigation Links

Place info

Page info

PayPal - The safer, easier way to pay online!

Return home.

Copyright ©2019 Inner Drive Technology. Purveyors of fine, hand-crafted computer software. Page printed 2019-08-25T05:11:13 UTC.